sensor_id;sensor_type;location;lat;lon;timestamp;P1;durP1;ratioP1;P2;durP2;ratioP2
10699;SDS011;5401;41.986;21.452;2023-12-20T00:01:05;206.20;;;133.33;;
10699;SDS011;5401;41.986;21.452;2023-12-20T00:03:51;165.94;;;105.94;;
10699;SDS011;5401;41.986;21.452;2023-12-20T00:06:19;145.53;;;93.30;;
10699;SDS011;5401;41.986;21.452;2023-12-20T00:08:48;148.23;;;98.43;;
10699;SDS011;5401;41.986;21.452;2023-12-20T00:11:15;171.87;;;114.80;;
10699;SDS011;5401;41.986;21.452;2023-12-20T00:13:43;179.63;;;118.27;;
10699;SDS011;5401;41.986;21.452;2023-12-20T00:16:10;167.90;;;111.97;;
10699;SDS011;5401;41.986;21.452;2023-12-20T00:18:38;158.00;;;107.57;;
10699;SDS011;5401;41.986;21.452;2023-12-20T00:21:05;172.30;;;119.07;;
10699;SDS011;5401;41.986;21.452;2023-12-20T00:23:35;175.30;;;115.13;;
10699;SDS011;5401;41.986;21.452;2023-12-20T00:26:04;202.27;;;125.90;;
10699;SDS011;5401;41.986;21.452;2023-12-20T00:28:31;199.90;;;133.50;;
10699;SDS011;5401;41.986;21.452;2023-12-20T00:30:59;174.03;;;117.67;;
10699;SDS011;5401;41.986;21.452;2023-12-20T00:33:28;177.67;;;122.57;;
10699;SDS011;5401;41.986;21.452;2023-12-20T00:35:55;172.27;;;114.13;;
10699;SDS011;5401;41.986;21.452;2023-12-20T00:38:24;187.37;;;116.10;;
10699;SDS011;5401;41.986;21.452;2023-12-20T00:40:52;212.57;;;139.40;;
10699;SDS011;5401;41.986;21.452;2023-12-20T00:43:21;204.57;;;138.53;;
10699;SDS011;5401;41.986;21.452;2023-12-20T00:45:49;201.87;;;137.93;;
10699;SDS011;5401;41.986;21.452;2023-12-20T00:48:16;216.10;;;144.07;;
10699;SDS011;5401;41.986;21.452;2023-12-20T00:50:44;220.40;;;143.13;;
10699;SDS011;5401;41.986;21.452;2023-12-20T00:53:12;217.20;;;145.63;;
10699;SDS011;5401;41.986;21.452;2023-12-20T00:55:39;221.37;;;145.20;;
10699;SDS011;5401;41.986;21.452;2023-12-20T00:58:07;222.80;;;148.23;;
10699;SDS011;5401;41.986;21.452;2023-12-20T01:00:36;211.30;;;142.00;;
10699;SDS011;5401;41.986;21.452;2023-12-20T01:03:04;217.93;;;140.80;;
10699;SDS011;5401;41.986;21.452;2023-12-20T01:05:31;209.33;;;139.33;;
10699;SDS011;5401;41.986;21.452;2023-12-20T01:07:59;217.73;;;139.33;;
10699;SDS011;5401;41.986;21.452;2023-12-20T01:10:28;222.50;;;141.93;;
10699;SDS011;5401;41.986;21.452;2023-12-20T01:12:56;222.67;;;136.00;;
10699;SDS011;5401;41.986;21.452;2023-12-20T01:15:23;221.27;;;141.20;;
10699;SDS011;5401;41.986;21.452;2023-12-20T01:17:52;210.47;;;131.43;;
10699;SDS011;5401;41.986;21.452;2023-12-20T01:20:20;219.43;;;136.60;;
10699;SDS011;5401;41.986;21.452;2023-12-20T01:22:47;202.67;;;130.83;;
10699;SDS011;5401;41.986;21.452;2023-12-20T01:25:15;219.23;;;134.10;;
10699;SDS011;5401;41.986;21.452;2023-12-20T01:27:43;203.47;;;128.03;;
10699;SDS011;5401;41.986;21.452;2023-12-20T01:30:11;192.53;;;121.23;;
10699;SDS011;5401;41.986;21.452;2023-12-20T01:32:39;176.60;;;118.53;;
10699;SDS011;5401;41.986;21.452;2023-12-20T01:35:08;195.77;;;125.90;;
10699;SDS011;5401;41.986;21.452;2023-12-20T01:37:43;195.32;;;124.80;;
10699;SDS011;5401;41.986;21.452;2023-12-20T01:40:11;204.50;;;132.13;;
10699;SDS011;5401;41.986;21.452;2023-12-20T01:42:39;202.53;;;131.20;;
10699;SDS011;5401;41.986;21.452;2023-12-20T01:45:07;202.23;;;120.67;;
10699;SDS011;5401;41.986;21.452;2023-12-20T01:47:35;183.40;;;116.53;;
10699;SDS011;5401;41.986;21.452;2023-12-20T01:50:03;199.00;;;125.37;;
10699;SDS011;5401;41.986;21.452;2023-12-20T01:52:35;196.93;;;125.30;;
10699;SDS011;5401;41.986;21.452;2023-12-20T01:55:03;184.97;;;119.37;;
10699;SDS011;5401;41.986;21.452;2023-12-20T01:57:38;196.43;;;122.60;;
10699;SDS011;5401;41.986;21.452;2023-12-20T02:00:07;180.33;;;116.27;;
10699;SDS011;5401;41.986;21.452;2023-12-20T02:02:36;170.13;;;112.73;;
10699;SDS011;5401;41.986;21.452;2023-12-20T02:05:07;179.43;;;112.13;;
10699;SDS011;5401;41.986;21.452;2023-12-20T02:07:36;165.10;;;112.03;;
10699;SDS011;5401;41.986;21.452;2023-12-20T02:10:04;164.93;;;109.77;;
10699;SDS011;5401;41.986;21.452;2023-12-20T02:12:32;172.27;;;113.27;;
10699;SDS011;5401;41.986;21.452;2023-12-20T02:15:00;168.70;;;109.27;;
10699;SDS011;5401;41.986;21.452;2023-12-20T02:17:27;177.90;;;117.23;;
10699;SDS011;5401;41.986;21.452;2023-12-20T02:19:56;167.77;;;107.77;;
10699;SDS011;5401;41.986;21.452;2023-12-20T02:22:25;158.97;;;109.33;;
10699;SDS011;5401;41.986;21.452;2023-12-20T02:24:53;165.30;;;110.47;;
10699;SDS011;5401;41.986;21.452;2023-12-20T02:27:21;168.63;;;108.47;;
10699;SDS011;5401;41.986;21.452;2023-12-20T02:29:50;163.73;;;106.87;;
10699;SDS011;5401;41.986;21.452;2023-12-20T02:32:17;166.37;;;110.53;;
10699;SDS011;5401;41.986;21.452;2023-12-20T02:34:47;162.23;;;106.30;;
10699;SDS011;5401;41.986;21.452;2023-12-20T02:37:15;163.63;;;106.77;;
10699;SDS011;5401;41.986;21.452;2023-12-20T02:39:44;156.40;;;105.13;;
10699;SDS011;5401;41.986;21.452;2023-12-20T02:42:12;170.73;;;112.43;;
10699;SDS011;5401;41.986;21.452;2023-12-20T02:44:39;158.17;;;108.70;;
10699;SDS011;5401;41.986;21.452;2023-12-20T02:47:07;169.47;;;107.90;;
10699;SDS011;5401;41.986;21.452;2023-12-20T02:49:34;170.53;;;108.60;;
10699;SDS011;5401;41.986;21.452;2023-12-20T02:52:02;166.57;;;111.43;;
10699;SDS011;5401;41.986;21.452;2023-12-20T02:54:30;146.73;;;98.63;;
10699;SDS011;5401;41.986;21.452;2023-12-20T02:56:59;135.33;;;92.90;;
10699;SDS011;5401;41.986;21.452;2023-12-20T02:59:26;136.43;;;91.47;;
10699;SDS011;5401;41.986;21.452;2023-12-20T03:01:54;129.27;;;90.50;;
10699;SDS011;5401;41.986;21.452;2023-12-20T03:04:21;126.50;;;86.10;;
10699;SDS011;5401;41.986;21.452;2023-12-20T03:06:49;115.67;;;80.20;;
10699;SDS011;5401;41.986;21.452;2023-12-20T03:09:16;122.23;;;80.73;;
10699;SDS011;5401;41.986;21.452;2023-12-20T03:11:44;116.93;;;79.40;;
10699;SDS011;5401;41.986;21.452;2023-12-20T03:14:13;134.90;;;89.33;;
10699;SDS011;5401;41.986;21.452;2023-12-20T03:16:41;128.97;;;92.00;;
10699;SDS011;5401;41.986;21.452;2023-12-20T03:19:08;144.70;;;94.17;;
10699;SDS011;5401;41.986;21.452;2023-12-20T03:21:36;150.33;;;98.67;;
10699;SDS011;5401;41.986;21.452;2023-12-20T03:24:03;140.63;;;95.67;;
10699;SDS011;5401;41.986;21.452;2023-12-20T03:26:32;149.20;;;92.67;;
10699;SDS011;5401;41.986;21.452;2023-12-20T03:28:59;145.70;;;94.30;;
10699;SDS011;5401;41.986;21.452;2023-12-20T03:31:28;134.60;;;90.03;;
10699;SDS011;5401;41.986;21.452;2023-12-20T03:33:56;126.87;;;84.07;;
10699;SDS011;5401;41.986;21.452;2023-12-20T03:36:23;131.30;;;84.13;;
10699;SDS011;5401;41.986;21.452;2023-12-20T03:38:51;125.13;;;79.47;;
10699;SDS011;5401;41.986;21.452;2023-12-20T03:41:18;121.67;;;81.43;;
10699;SDS011;5401;41.986;21.452;2023-12-20T03:43:46;127.10;;;85.37;;
10699;SDS011;5401;41.986;21.452;2023-12-20T03:46:13;128.90;;;85.33;;
10699;SDS011;5401;41.986;21.452;2023-12-20T03:48:42;126.63;;;81.93;;
10699;SDS011;5401;41.986;21.452;2023-12-20T03:51:10;122.87;;;80.57;;
10699;SDS011;5401;41.986;21.452;2023-12-20T03:53:37;125.27;;;82.87;;
10699;SDS011;5401;41.986;21.452;2023-12-20T03:56:06;127.90;;;84.60;;
10699;SDS011;5401;41.986;21.452;2023-12-20T03:58:33;119.70;;;81.67;;
10699;SDS011;5401;41.986;21.452;2023-12-20T04:01:02;127.67;;;86.13;;
10699;SDS011;5401;41.986;21.452;2023-12-20T04:03:30;129.63;;;85.00;;
10699;SDS011;5401;41.986;21.452;2023-12-20T04:05:59;124.70;;;84.90;;
10699;SDS011;5401;41.986;21.452;2023-12-20T04:08:26;128.40;;;84.50;;
10699;SDS011;5401;41.986;21.452;2023-12-20T04:10:54;132.70;;;88.50;;
10699;SDS011;5401;41.986;21.452;2023-12-20T04:13:21;120.07;;;77.10;;
10699;SDS011;5401;41.986;21.452;2023-12-20T04:15:49;123.50;;;81.83;;
10699;SDS011;5401;41.986;21.452;2023-12-20T04:18:17;131.20;;;81.87;;
10699;SDS011;5401;41.986;21.452;2023-12-20T04:20:45;127.43;;;78.33;;
10699;SDS011;5401;41.986;21.452;2023-12-20T04:23:14;126.37;;;80.90;;
10699;SDS011;5401;41.986;21.452;2023-12-20T04:25:41;117.03;;;78.87;;
10699;SDS011;5401;41.986;21.452;2023-12-20T04:28:09;121.17;;;77.83;;
10699;SDS011;5401;41.986;21.452;2023-12-20T04:30:36;121.97;;;79.63;;
10699;SDS011;5401;41.986;21.452;2023-12-20T04:33:04;124.20;;;75.07;;
10699;SDS011;5401;41.986;21.452;2023-12-20T04:35:31;131.17;;;77.73;;
10699;SDS011;5401;41.986;21.452;2023-12-20T04:37:59;117.83;;;71.90;;
10699;SDS011;5401;41.986;21.452;2023-12-20T04:40:28;106.70;;;73.17;;
10699;SDS011;5401;41.986;21.452;2023-12-20T04:42:56;119.60;;;73.57;;
10699;SDS011;5401;41.986;21.452;2023-12-20T04:45:24;119.07;;;72.97;;
10699;SDS011;5401;41.986;21.452;2023-12-20T04:47:51;118.77;;;69.57;;
10699;SDS011;5401;41.986;21.452;2023-12-20T04:50:19;96.03;;;63.13;;
10699;SDS011;5401;41.986;21.452;2023-12-20T04:52:47;98.93;;;62.30;;
10699;SDS011;5401;41.986;21.452;2023-12-20T04:55:14;103.07;;;62.33;;
10699;SDS011;5401;41.986;21.452;2023-12-20T04:57:43;100.27;;;63.80;;
10699;SDS011;5401;41.986;21.452;2023-12-20T05:00:11;106.00;;;59.47;;
10699;SDS011;5401;41.986;21.452;2023-12-20T05:02:41;161.63;;;66.37;;
10699;SDS011;5401;41.986;21.452;2023-12-20T05:05:08;104.07;;;59.70;;
10699;SDS011;5401;41.986;21.452;2023-12-20T05:07:36;88.57;;;54.70;;
10699;SDS011;5401;41.986;21.452;2023-12-20T05:10:04;107.83;;;54.47;;
10699;SDS011;5401;41.986;21.452;2023-12-20T05:12:33;86.57;;;52.33;;
10699;SDS011;5401;41.986;21.452;2023-12-20T05:15:03;96.13;;;53.63;;
10699;SDS011;5401;41.986;21.452;2023-12-20T05:17:31;89.57;;;54.03;;
10699;SDS011;5401;41.986;21.452;2023-12-20T05:19:58;86.53;;;53.50;;
10699;SDS011;5401;41.986;21.452;2023-12-20T05:22:26;88.07;;;52.63;;
10699;SDS011;5401;41.986;21.452;2023-12-20T05:24:54;90.77;;;51.90;;
10699;SDS011;5401;41.986;21.452;2023-12-20T05:27:21;81.50;;;52.27;;
10699;SDS011;5401;41.986;21.452;2023-12-20T05:29:49;86.33;;;50.43;;
10699;SDS011;5401;41.986;21.452;2023-12-20T05:32:18;86.37;;;50.80;;
10699;SDS011;5401;41.986;21.452;2023-12-20T05:34:47;87.57;;;50.27;;
10699;SDS011;5401;41.986;21.452;2023-12-20T05:37:14;77.77;;;51.17;;
10699;SDS011;5401;41.986;21.452;2023-12-20T05:39:42;78.63;;;49.77;;
10699;SDS011;5401;41.986;21.452;2023-12-20T05:42:09;100.77;;;55.87;;
10699;SDS011;5401;41.986;21.452;2023-12-20T05:44:37;99.70;;;59.43;;
10699;SDS011;5401;41.986;21.452;2023-12-20T05:47:05;98.30;;;54.60;;
10699;SDS011;5401;41.986;21.452;2023-12-20T05:49:33;98.37;;;54.73;;
10699;SDS011;5401;41.986;21.452;2023-12-20T05:52:01;93.30;;;53.63;;
10699;SDS011;5401;41.986;21.452;2023-12-20T05:54:28;91.07;;;53.03;;
10699;SDS011;5401;41.986;21.452;2023-12-20T05:56:56;87.53;;;51.80;;
10699;SDS011;5401;41.986;21.452;2023-12-20T05:59:24;93.87;;;51.57;;
10699;SDS011;5401;41.986;21.452;2023-12-20T06:01:51;83.87;;;51.73;;
10699;SDS011;5401;41.986;21.452;2023-12-20T06:04:19;88.87;;;52.47;;
10699;SDS011;5401;41.986;21.452;2023-12-20T06:06:48;87.00;;;52.03;;
10699;SDS011;5401;41.986;21.452;2023-12-20T06:09:16;99.57;;;53.43;;
10699;SDS011;5401;41.986;21.452;2023-12-20T06:11:43;92.60;;;51.47;;
10699;SDS011;5401;41.986;21.452;2023-12-20T06:14:10;90.23;;;53.20;;
10699;SDS011;5401;41.986;21.452;2023-12-20T06:16:37;91.77;;;52.97;;
10699;SDS011;5401;41.986;21.452;2023-12-20T06:19:05;95.33;;;56.10;;
10699;SDS011;5401;41.986;21.452;2023-12-20T06:21:32;108.20;;;58.97;;
10699;SDS011;5401;41.986;21.452;2023-12-20T06:24:04;100.50;;;59.03;;
10699;SDS011;5401;41.986;21.452;2023-12-20T06:26:31;107.23;;;59.63;;
10699;SDS011;5401;41.986;21.452;2023-12-20T06:28:59;105.73;;;60.13;;
10699;SDS011;5401;41.986;21.452;2023-12-20T06:31:26;101.57;;;59.53;;
10699;SDS011;5401;41.986;21.452;2023-12-20T06:33:54;90.90;;;56.20;;
10699;SDS011;5401;41.986;21.452;2023-12-20T06:36:23;102.13;;;59.63;;
10699;SDS011;5401;41.986;21.452;2023-12-20T06:38:51;107.40;;;58.33;;
10699;SDS011;5401;41.986;21.452;2023-12-20T06:41:20;98.17;;;55.90;;
10699;SDS011;5401;41.986;21.452;2023-12-20T06:43:47;111.17;;;61.97;;
10699;SDS011;5401;41.986;21.452;2023-12-20T06:46:15;102.90;;;58.30;;
10699;SDS011;5401;41.986;21.452;2023-12-20T06:48:42;113.50;;;57.73;;
10699;SDS011;5401;41.986;21.452;2023-12-20T06:51:11;113.10;;;58.80;;
10699;SDS011;5401;41.986;21.452;2023-12-20T06:53:39;112.03;;;60.13;;
10699;SDS011;5401;41.986;21.452;2023-12-20T06:56:07;122.50;;;62.47;;
10699;SDS011;5401;41.986;21.452;2023-12-20T06:58:36;107.07;;;59.80;;
10699;SDS011;5401;41.986;21.452;2023-12-20T07:01:04;129.33;;;67.53;;
10699;SDS011;5401;41.986;21.452;2023-12-20T07:03:31;135.83;;;70.37;;
10699;SDS011;5401;41.986;21.452;2023-12-20T07:05:59;137.77;;;68.27;;
10699;SDS011;5401;41.986;21.452;2023-12-20T07:08:26;147.63;;;69.10;;
10699;SDS011;5401;41.986;21.452;2023-12-20T07:10:54;138.13;;;71.97;;
10699;SDS011;5401;41.986;21.452;2023-12-20T07:13:21;139.07;;;70.60;;
10699;SDS011;5401;41.986;21.452;2023-12-20T07:15:50;138.67;;;72.80;;
10699;SDS011;5401;41.986;21.452;2023-12-20T07:18:18;152.90;;;71.63;;
10699;SDS011;5401;41.986;21.452;2023-12-20T07:20:45;138.10;;;71.40;;
10699;SDS011;5401;41.986;21.452;2023-12-20T07:23:13;138.60;;;70.20;;
10699;SDS011;5401;41.986;21.452;2023-12-20T07:25:42;133.07;;;72.37;;
10699;SDS011;5401;41.986;21.452;2023-12-20T07:28:09;135.70;;;66.97;;
10699;SDS011;5401;41.986;21.452;2023-12-20T07:30:37;141.20;;;68.43;;
10699;SDS011;5401;41.986;21.452;2023-12-20T07:33:06;130.07;;;63.90;;
10699;SDS011;5401;41.986;21.452;2023-12-20T07:35:36;139.13;;;67.03;;
10699;SDS011;5401;41.986;21.452;2023-12-20T07:38:04;119.67;;;61.57;;
10699;SDS011;5401;41.986;21.452;2023-12-20T07:40:32;113.23;;;60.53;;
10699;SDS011;5401;41.986;21.452;2023-12-20T07:43:00;130.10;;;62.97;;
10699;SDS011;5401;41.986;21.452;2023-12-20T07:45:28;115.10;;;61.83;;
10699;SDS011;5401;41.986;21.452;2023-12-20T07:47:55;121.47;;;62.40;;
10699;SDS011;5401;41.986;21.452;2023-12-20T07:50:24;118.93;;;61.00;;
10699;SDS011;5401;41.986;21.452;2023-12-20T07:52:52;118.47;;;62.53;;
10699;SDS011;5401;41.986;21.452;2023-12-20T07:55:20;122.40;;;61.30;;
10699;SDS011;5401;41.986;21.452;2023-12-20T07:57:48;121.97;;;60.57;;
10699;SDS011;5401;41.986;21.452;2023-12-20T08:00:16;125.30;;;61.23;;
10699;SDS011;5401;41.986;21.452;2023-12-20T08:02:44;121.73;;;61.97;;
10699;SDS011;5401;41.986;21.452;2023-12-20T08:05:12;113.07;;;61.77;;
10699;SDS011;5401;41.986;21.452;2023-12-20T08:07:41;118.03;;;63.40;;
10699;SDS011;5401;41.986;21.452;2023-12-20T08:10:08;120.87;;;62.23;;
10699;SDS011;5401;41.986;21.452;2023-12-20T08:12:36;126.10;;;61.97;;
10699;SDS011;5401;41.986;21.452;2023-12-20T08:15:06;126.63;;;65.27;;
10699;SDS011;5401;41.986;21.452;2023-12-20T08:17:34;134.10;;;66.73;;
10699;SDS011;5401;41.986;21.452;2023-12-20T08:20:01;155.83;;;69.70;;
10699;SDS011;5401;41.986;21.452;2023-12-20T08:22:29;161.00;;;71.40;;
10699;SDS011;5401;41.986;21.452;2023-12-20T08:24:58;181.20;;;74.13;;
10699;SDS011;5401;41.986;21.452;2023-12-20T08:27:26;170.67;;;71.20;;
10699;SDS011;5401;41.986;21.452;2023-12-20T08:29:53;160.17;;;73.07;;
10699;SDS011;5401;41.986;21.452;2023-12-20T08:32:21;156.90;;;71.53;;
10699;SDS011;5401;41.986;21.452;2023-12-20T08:34:49;157.37;;;71.63;;
10699;SDS011;5401;41.986;21.452;2023-12-20T08:37:16;171.07;;;75.43;;
10699;SDS011;5401;41.986;21.452;2023-12-20T08:39:43;159.67;;;74.87;;
10699;SDS011;5401;41.986;21.452;2023-12-20T08:42:15;183.50;;;75.97;;
10699;SDS011;5401;41.986;21.452;2023-12-20T08:44:42;129.87;;;63.97;;
10699;SDS011;5401;41.986;21.452;2023-12-20T08:47:10;118.90;;;66.00;;
10699;SDS011;5401;41.986;21.452;2023-12-20T08:49:39;118.43;;;64.50;;
10699;SDS011;5401;41.986;21.452;2023-12-20T08:52:06;128.67;;;66.63;;
10699;SDS011;5401;41.986;21.452;2023-12-20T08:54:34;126.47;;;66.73;;
10699;SDS011;5401;41.986;21.452;2023-12-20T08:57:02;137.10;;;72.17;;
10699;SDS011;5401;41.986;21.452;2023-12-20T08:59:33;130.43;;;68.20;;
10699;SDS011;5401;41.986;21.452;2023-12-20T09:02:00;132.13;;;69.03;;
10699;SDS011;5401;41.986;21.452;2023-12-20T09:04:28;150.23;;;68.87;;
10699;SDS011;5401;41.986;21.452;2023-12-20T09:06:59;133.00;;;68.33;;
10699;SDS011;5401;41.986;21.452;2023-12-20T09:09:27;126.10;;;68.93;;
10699;SDS011;5401;41.986;21.452;2023-12-20T09:11:55;142.23;;;72.07;;
10699;SDS011;5401;41.986;21.452;2023-12-20T09:14:22;128.50;;;68.80;;
10699;SDS011;5401;41.986;21.452;2023-12-20T09:16:51;132.47;;;72.03;;
10699;SDS011;5401;41.986;21.452;2023-12-20T09:19:21;137.10;;;73.37;;
10699;SDS011;5401;41.986;21.452;2023-12-20T09:21:49;139.20;;;74.17;;
10699;SDS011;5401;41.986;21.452;2023-12-20T09:24:16;135.27;;;74.07;;
10699;SDS011;5401;41.986;21.452;2023-12-20T09:26:44;152.73;;;73.30;;
10699;SDS011;5401;41.986;21.452;2023-12-20T09:29:11;130.93;;;74.93;;
10699;SDS011;5401;41.986;21.452;2023-12-20T09:31:41;144.53;;;75.37;;
10699;SDS011;5401;41.986;21.452;2023-12-20T09:34:11;143.53;;;74.50;;
10699;SDS011;5401;41.986;21.452;2023-12-20T09:36:38;143.17;;;76.03;;
10699;SDS011;5401;41.986;21.452;2023-12-20T09:39:12;143.93;;;74.80;;
10699;SDS011;5401;41.986;21.452;2023-12-20T09:41:42;138.47;;;74.63;;
10699;SDS011;5401;41.986;21.452;2023-12-20T09:44:13;149.50;;;78.23;;
10699;SDS011;5401;41.986;21.452;2023-12-20T09:46:44;154.10;;;77.20;;
10699;SDS011;5401;41.986;21.452;2023-12-20T09:49:15;145.37;;;76.23;;
10699;SDS011;5401;41.986;21.452;2023-12-20T09:51:45;156.93;;;79.73;;
10699;SDS011;5401;41.986;21.452;2023-12-20T09:54:14;147.33;;;77.37;;
10699;SDS011;5401;41.986;21.452;2023-12-20T09:56:42;154.30;;;79.37;;
10699;SDS011;5401;41.986;21.452;2023-12-20T09:59:10;156.87;;;73.63;;
10699;SDS011;5401;41.986;21.452;2023-12-20T10:01:38;145.37;;;78.67;;
10699;SDS011;5401;41.986;21.452;2023-12-20T10:04:08;138.20;;;75.57;;
10699;SDS011;5401;41.986;21.452;2023-12-20T10:06:39;151.20;;;77.13;;
10699;SDS011;5401;41.986;21.452;2023-12-20T10:09:07;137.30;;;73.37;;
10699;SDS011;5401;41.986;21.452;2023-12-20T10:11:34;144.73;;;79.47;;
10699;SDS011;5401;41.986;21.452;2023-12-20T10:14:03;154.90;;;80.47;;
10699;SDS011;5401;41.986;21.452;2023-12-20T10:16:35;148.37;;;77.87;;
10699;SDS011;5401;41.986;21.452;2023-12-20T10:19:02;152.03;;;83.03;;
10699;SDS011;5401;41.986;21.452;2023-12-20T10:21:30;145.50;;;80.63;;
10699;SDS011;5401;41.986;21.452;2023-12-20T10:24:00;143.77;;;78.03;;
10699;SDS011;5401;41.986;21.452;2023-12-20T10:26:28;150.67;;;79.17;;
10699;SDS011;5401;41.986;21.452;2023-12-20T10:28:55;146.37;;;79.77;;
10699;SDS011;5401;41.986;21.452;2023-12-20T10:31:26;153.53;;;84.60;;
10699;SDS011;5401;41.986;21.452;2023-12-20T10:33:55;146.80;;;83.00;;
10699;SDS011;5401;41.986;21.452;2023-12-20T10:36:25;141.33;;;79.77;;
10699;SDS011;5401;41.986;21.452;2023-12-20T10:38:59;142.07;;;78.33;;
10699;SDS011;5401;41.986;21.452;2023-12-20T10:41:34;146.53;;;82.70;;
10699;SDS011;5401;41.986;21.452;2023-12-20T10:44:06;151.97;;;83.87;;
10699;SDS011;5401;41.986;21.452;2023-12-20T10:46:35;157.57;;;86.47;;
10699;SDS011;5401;41.986;21.452;2023-12-20T10:49:06;149.67;;;85.07;;
10699;SDS011;5401;41.986;21.452;2023-12-20T10:51:35;146.20;;;84.20;;
10699;SDS011;5401;41.986;21.452;2023-12-20T10:54:06;150.53;;;83.57;;
10699;SDS011;5401;41.986;21.452;2023-12-20T10:56:34;156.90;;;85.60;;
10699;SDS011;5401;41.986;21.452;2023-12-20T10:59:04;157.33;;;86.47;;
10699;SDS011;5401;41.986;21.452;2023-12-20T11:01:39;164.83;;;87.17;;
10699;SDS011;5401;41.986;21.452;2023-12-20T11:04:09;148.70;;;83.03;;
10699;SDS011;5401;41.986;21.452;2023-12-20T11:06:44;156.77;;;85.63;;
10699;SDS011;5401;41.986;21.452;2023-12-20T11:09:19;137.00;;;74.77;;
10699;SDS011;5401;41.986;21.452;2023-12-20T11:11:55;155.00;;;87.43;;
10699;SDS011;5401;41.986;21.452;2023-12-20T11:14:31;201.27;;;90.97;;
10699;SDS011;5401;41.986;21.452;2023-12-20T11:17:15;174.87;;;84.60;;
10699;SDS011;5401;41.986;21.452;2023-12-20T11:22:33;168.37;;;88.20;;
10699;SDS011;5401;41.986;21.452;2023-12-20T11:25:04;231.77;;;106.73;;
10699;SDS011;5401;41.986;21.452;2023-12-20T11:27:34;165.67;;;91.10;;
10699;SDS011;5401;41.986;21.452;2023-12-20T11:30:02;179.13;;;92.27;;
10699;SDS011;5401;41.986;21.452;2023-12-20T11:32:33;190.87;;;98.50;;
10699;SDS011;5401;41.986;21.452;2023-12-20T11:35:17;186.20;;;93.13;;
10699;SDS011;5401;41.986;21.452;2023-12-20T11:37:46;196.47;;;99.20;;
10699;SDS011;5401;41.986;21.452;2023-12-20T11:40:16;172.97;;;97.07;;
10699;SDS011;5401;41.986;21.452;2023-12-20T11:42:45;176.80;;;95.33;;
10699;SDS011;5401;41.986;21.452;2023-12-20T11:45:17;201.20;;;101.33;;
10699;SDS011;5401;41.986;21.452;2023-12-20T11:47:47;189.80;;;105.23;;
10699;SDS011;5401;41.986;21.452;2023-12-20T11:50:16;208.43;;;109.17;;
10699;SDS011;5401;41.986;21.452;2023-12-20T11:52:44;200.00;;;108.47;;
10699;SDS011;5401;41.986;21.452;2023-12-20T11:55:11;211.37;;;112.40;;
10699;SDS011;5401;41.986;21.452;2023-12-20T11:57:41;195.70;;;113.73;;
10699;SDS011;5401;41.986;21.452;2023-12-20T12:00:10;227.50;;;112.73;;
10699;SDS011;5401;41.986;21.452;2023-12-20T12:02:40;217.70;;;111.23;;
10699;SDS011;5401;41.986;21.452;2023-12-20T12:05:08;196.77;;;105.30;;
10699;SDS011;5401;41.986;21.452;2023-12-20T12:07:35;195.40;;;106.97;;
10699;SDS011;5401;41.986;21.452;2023-12-20T12:10:03;220.10;;;115.20;;
10699;SDS011;5401;41.986;21.452;2023-12-20T12:12:31;214.93;;;113.97;;
10699;SDS011;5401;41.986;21.452;2023-12-20T12:15:00;213.63;;;114.00;;
10699;SDS011;5401;41.986;21.452;2023-12-20T12:17:28;217.60;;;113.20;;
10699;SDS011;5401;41.986;21.452;2023-12-20T12:20:01;213.30;;;117.63;;
10699;SDS011;5401;41.986;21.452;2023-12-20T12:22:30;210.97;;;114.43;;
10699;SDS011;5401;41.986;21.452;2023-12-20T12:24:59;218.97;;;116.90;;
10699;SDS011;5401;41.986;21.452;2023-12-20T12:27:36;217.93;;;112.87;;
10699;SDS011;5401;41.986;21.452;2023-12-20T12:30:07;216.63;;;114.57;;
10699;SDS011;5401;41.986;21.452;2023-12-20T12:32:38;192.10;;;108.33;;
10699;SDS011;5401;41.986;21.452;2023-12-20T12:35:07;210.70;;;109.87;;
10699;SDS011;5401;41.986;21.452;2023-12-20T12:37:36;205.37;;;109.73;;
10699;SDS011;5401;41.986;21.452;2023-12-20T12:40:06;190.17;;;102.50;;
10699;SDS011;5401;41.986;21.452;2023-12-20T12:42:36;182.43;;;98.97;;
10699;SDS011;5401;41.986;21.452;2023-12-20T12:45:04;189.70;;;102.67;;
10699;SDS011;5401;41.986;21.452;2023-12-20T12:47:34;207.20;;;105.57;;
10699;SDS011;5401;41.986;21.452;2023-12-20T12:50:02;205.53;;;104.57;;
10699;SDS011;5401;41.986;21.452;2023-12-20T12:52:30;192.73;;;101.60;;
10699;SDS011;5401;41.986;21.452;2023-12-20T12:54:57;204.63;;;103.23;;
10699;SDS011;5401;41.986;21.452;2023-12-20T12:57:25;207.47;;;103.77;;
10699;SDS011;5401;41.986;21.452;2023-12-20T12:59:53;192.03;;;103.73;;
10699;SDS011;5401;41.986;21.452;2023-12-20T13:02:20;203.53;;;102.77;;
10699;SDS011;5401;41.986;21.452;2023-12-20T13:04:49;196.13;;;101.10;;
10699;SDS011;5401;41.986;21.452;2023-12-20T13:07:17;187.10;;;101.57;;
10699;SDS011;5401;41.986;21.452;2023-12-20T13:09:45;191.77;;;103.27;;
10699;SDS011;5401;41.986;21.452;2023-12-20T13:12:12;171.67;;;97.17;;
10699;SDS011;5401;41.986;21.452;2023-12-20T13:14:40;185.77;;;98.17;;
10699;SDS011;5401;41.986;21.452;2023-12-20T13:17:07;193.40;;;97.40;;
10699;SDS011;5401;41.986;21.452;2023-12-20T13:19:34;191.87;;;100.90;;
10699;SDS011;5401;41.986;21.452;2023-12-20T13:22:03;183.20;;;99.50;;
10699;SDS011;5401;41.986;21.452;2023-12-20T13:24:32;198.07;;;102.23;;
10699;SDS011;5401;41.986;21.452;2023-12-20T13:27:00;189.43;;;100.83;;
10699;SDS011;5401;41.986;21.452;2023-12-20T13:29:28;192.80;;;98.87;;
10699;SDS011;5401;41.986;21.452;2023-12-20T13:31:55;188.27;;;103.50;;
10699;SDS011;5401;41.986;21.452;2023-12-20T13:34:23;195.63;;;101.90;;
10699;SDS011;5401;41.986;21.452;2023-12-20T13:36:51;184.33;;;99.10;;
10699;SDS011;5401;41.986;21.452;2023-12-20T13:39:20;183.03;;;98.17;;
10699;SDS011;5401;41.986;21.452;2023-12-20T13:41:47;185.57;;;103.10;;
10699;SDS011;5401;41.986;21.452;2023-12-20T13:44:15;191.63;;;99.00;;
10699;SDS011;5401;41.986;21.452;2023-12-20T13:46:42;187.67;;;99.27;;
10699;SDS011;5401;41.986;21.452;2023-12-20T13:49:11;192.07;;;99.80;;
10699;SDS011;5401;41.986;21.452;2023-12-20T13:51:39;198.33;;;100.57;;
10699;SDS011;5401;41.986;21.452;2023-12-20T13:54:07;187.37;;;97.23;;
10699;SDS011;5401;41.986;21.452;2023-12-20T13:56:38;174.33;;;96.43;;
10699;SDS011;5401;41.986;21.452;2023-12-20T13:59:05;185.80;;;100.70;;
10699;SDS011;5401;41.986;21.452;2023-12-20T14:01:33;184.83;;;99.17;;
10699;SDS011;5401;41.986;21.452;2023-12-20T14:04:01;187.93;;;102.80;;
10699;SDS011;5401;41.986;21.452;2023-12-20T14:06:29;181.87;;;96.80;;
10699;SDS011;5401;41.986;21.452;2023-12-20T14:08:56;167.50;;;94.57;;
10699;SDS011;5401;41.986;21.452;2023-12-20T14:11:25;165.50;;;88.07;;
10699;SDS011;5401;41.986;21.452;2023-12-20T14:13:54;173.47;;;92.30;;
10699;SDS011;5401;41.986;21.452;2023-12-20T14:16:23;170.30;;;91.90;;